Time;durP1;ratioP1;P1;durP2;ratioP2;P2;SDS_P1;SDS_P2;PMS_P1;PMS_P2;Temp;Humidity;BMP_temperature;BMP_pressure;BME280_temperature;BME280_humidity;BME280_pressure;Samples;Min_cycle;Max_cycle;Signal;HPM_P1;HPM_P2
2023/06/11 00:00:31;;;;;;;701.03;643.67;;;;;;;;;;4980930;28;20550;-58
2023/06/11 00:02:56;;;;;;;706.60;648.80;;;;;;;;;;4980216;28;20213;-58
2023/06/11 00:05:22;;;;;;;703.87;646.10;;;;;;;;;;4979915;28;20612;-57
2023/06/11 00:07:48;;;;;;;698.33;641.00;;;;;;;;;;4979177;28;20051;-58
2023/06/11 00:10:14;;;;;;;698.97;641.30;;;;;;;;;;4979917;28;20033;-59
2023/06/11 00:12:40;;;;;;;703.23;645.43;;;;;;;;;;4980207;28;20454;-58
2023/06/11 00:15:06;;;;;;;706.43;648.63;;;;;;;;;;4977867;28;20061;-58
2023/06/11 00:17:33;;;;;;;688.37;631.17;;;;;;;;;;4980175;28;20054;-58
2023/06/11 00:19:59;;;;;;;691.50;634.33;;;;;;;;;;4980100;28;20054;-58
2023/06/11 00:22:27;;;;;;;710.73;653.07;;;;;;;;;;4978011;28;20084;-58
2023/06/11 00:24:52;;;;;;;690.50;633.30;;;;;;;;;;4964589;28;20398;-58
2023/06/11 00:27:18;;;;;;;692.70;635.67;;;;;;;;;;4964308;28;20440;-58
2023/06/11 00:29:43;;;;;;;700.73;643.10;;;;;;;;;;4980945;28;20100;-58
2023/06/11 00:32:09;;;;;;;694.33;637.03;;;;;;;;;;4980431;28;20500;-58
2023/06/11 00:34:35;;;;;;;697.73;640.57;;;;;;;;;;4962522;28;20046;-58
2023/06/11 00:37:00;;;;;;;695.70;638.10;;;;;;;;;;4980894;28;20122;-58
2023/06/11 00:39:26;;;;;;;690.83;633.70;;;;;;;;;;4979370;28;20109;-58
2023/06/11 00:41:53;;;;;;;681.73;624.33;;;;;;;;;;4980846;28;20038;-58
2023/06/11 00:44:21;;;;;;;678.13;621.17;;;;;;;;;;4961105;28;20053;-58
2023/06/11 00:46:48;;;;;;;668.43;611.37;;;;;;;;;;4978164;28;20038;-57
2023/06/11 00:49:17;;;;;;;677.13;620.10;;;;;;;;;;4980247;28;20106;-58
2023/06/11 00:51:45;;;;;;;664.37;607.73;;;;;;;;;;4976307;28;20394;-58
2023/06/11 00:54:12;;;;;;;671.73;614.90;;;;;;;;;;4972301;28;20626;-58
2023/06/11 00:56:43;;;;;;;665.53;608.93;;;;;;;;;;4958328;28;20043;-58
2023/06/11 00:59:09;;;;;;;675.10;618.13;;;;;;;;;;4983132;28;20048;-59
2023/06/11 01:01:41;;;;;;;671.57;614.73;;;;;;;;;;4963126;28;20057;-58
2023/06/11 01:04:11;;;;;;;679.23;621.93;;;;;;;;;;4994463;28;20046;-57
2023/06/11 01:06:37;;;;;;;670.90;614.23;;;;;;;;;;5019462;28;20041;-58
2023/06/11 01:09:05;;;;;;;674.30;617.30;;;;;;;;;;4992784;28;20046;-58
2023/06/11 01:11:34;;;;;;;676.57;618.87;;;;;;;;;;5000621;28;20674;-58
2023/06/11 01:14:04;;;;;;;675.60;618.73;;;;;;;;;;4998989;28;20311;-58
2023/06/11 01:16:36;;;;;;;701.43;643.43;;;;;;;;;;5003828;28;20041;-58
2023/06/11 01:19:12;;;;;;;668.47;611.67;;;;;;;;;;5017928;28;20461;-58
2023/06/11 01:21:48;;;;;;;665.53;609.20;;;;;;;;;;5004059;28;20034;-58
2023/06/11 01:24:16;;;;;;;664.47;608.07;;;;;;;;;;4992420;28;20038;-58
2023/06/11 01:27:04;;;;;;;659.67;603.20;;;;;;;;;;4995091;28;20683;-58
2023/06/11 01:29:33;;;;;;;666.83;610.07;;;;;;;;;;5010106;28;20629;-58
2023/06/11 01:32:00;;;;;;;676.77;619.83;;;;;;;;;;5010709;28;20034;-58
2023/06/11 01:34:26;;;;;;;667.80;611.20;;;;;;;;;;5003328;28;20030;-58
2023/06/11 01:36:53;;;;;;;661.37;604.97;;;;;;;;;;5002741;28;20045;-57
2023/06/11 01:39:19;;;;;;;664.53;607.57;;;;;;;;;;4992628;28;20034;-58
2023/06/11 01:41:56;;;;;;;670.13;613.33;;;;;;;;;;5002190;28;20053;-57
2023/06/11 01:44:22;;;;;;;669.27;612.57;;;;;;;;;;5009381;28;20129;-59
2023/06/11 01:46:48;;;;;;;668.40;611.60;;;;;;;;;;4993836;28;20033;-59
2023/06/11 01:49:13;;;;;;;657.10;600.67;;;;;;;;;;5003184;28;20040;-59
2023/06/11 01:51:39;;;;;;;668.83;612.23;;;;;;;;;;5003681;28;20040;-59
2023/06/11 01:54:05;;;;;;;661.03;604.63;;;;;;;;;;5018816;28;20065;-61
2023/06/11 01:56:32;;;;;;;653.80;597.73;;;;;;;;;;5000712;28;20153;-59
2023/06/11 01:58:58;;;;;;;659.10;602.47;;;;;;;;;;5018081;28;21013;-59
2023/06/11 02:01:24;;;;;;;653.67;597.37;;;;;;;;;;5019087;28;20366;-64
2023/06/11 02:03:51;;;;;;;644.77;588.67;;;;;;;;;;5002542;28;20053;-59
2023/06/11 02:06:16;;;;;;;648.17;591.33;;;;;;;;;;4991259;28;20034;-59
2023/06/11 02:08:43;;;;;;;635.93;579.63;;;;;;;;;;4993817;28;20533;-59
2023/06/11 02:11:10;;;;;;;632.80;576.93;;;;;;;;;;5003493;28;20048;-59
2023/06/11 02:13:36;;;;;;;646.13;589.83;;;;;;;;;;5002508;28;20033;-59
2023/06/11 02:16:01;;;;;;;631.43;575.27;;;;;;;;;;5002365;28;20042;-59
2023/06/11 02:18:26;;;;;;;630.93;574.90;;;;;;;;;;5002860;28;20441;-58
2023/06/11 02:20:52;;;;;;;625.73;570.07;;;;;;;;;;5003038;28;20034;-59
2023/06/11 02:23:18;;;;;;;629.13;573.37;;;;;;;;;;4994410;28;20572;-64
2023/06/11 02:25:44;;;;;;;625.63;569.73;;;;;;;;;;5017282;28;20042;-58
2023/06/11 02:28:10;;;;;;;626.27;570.30;;;;;;;;;;5019693;28;20049;-56
2023/06/11 02:30:36;;;;;;;624.47;568.70;;;;;;;;;;5003281;28;20030;-58
2023/06/11 02:33:02;;;;;;;618.77;562.90;;;;;;;;;;5019475;28;20041;-59
2023/06/11 02:35:29;;;;;;;622.13;566.50;;;;;;;;;;4993838;28;20033;-58
2023/06/11 02:37:55;;;;;;;616.83;560.97;;;;;;;;;;5002917;28;20038;-60
2023/06/11 02:40:20;;;;;;;623.67;567.67;;;;;;;;;;4984884;28;20037;-60
2023/06/11 02:42:46;;;;;;;617.37;561.63;;;;;;;;;;4994238;28;20037;-59
2023/06/11 02:45:12;;;;;;;609.93;554.33;;;;;;;;;;5001256;28;20064;-59
2023/06/11 02:47:37;;;;;;;619.67;563.87;;;;;;;;;;5000957;28;20034;-60
2023/06/11 02:50:03;;;;;;;612.50;556.93;;;;;;;;;;5015737;28;20507;-59
2023/06/11 02:52:29;;;;;;;614.40;558.57;;;;;;;;;;4999259;28;20061;-58
2023/06/11 02:54:54;;;;;;;611.63;556.03;;;;;;;;;;4991979;28;20037;-60
2023/06/11 02:57:20;;;;;;;610.10;554.57;;;;;;;;;;5016298;28;20639;-57
2023/06/11 02:59:45;;;;;;;615.97;560.20;;;;;;;;;;4990213;28;20422;-57
2023/06/11 03:02:11;;;;;;;612.63;557.23;;;;;;;;;;4983974;28;20037;-57
2023/06/11 03:04:36;;;;;;;614.10;558.53;;;;;;;;;;5000759;28;20057;-57
2023/06/11 03:07:02;;;;;;;615.00;559.33;;;;;;;;;;5001946;28;20088;-58
2023/06/11 03:09:28;;;;;;;623.10;567.20;;;;;;;;;;4989659;28;20038;-58
2023/06/11 03:11:54;;;;;;;617.87;562.00;;;;;;;;;;5008444;28;20030;-58
2023/06/11 03:14:21;;;;;;;620.80;565.07;;;;;;;;;;4997104;28;20029;-58
2023/06/11 03:16:47;;;;;;;618.83;562.87;;;;;;;;;;5007198;28;20963;-58
2023/06/11 03:19:12;;;;;;;613.00;557.20;;;;;;;;;;4982550;28;20034;-58
2023/06/11 03:21:38;;;;;;;609.30;553.63;;;;;;;;;;4999687;28;20064;-58
2023/06/11 03:24:04;;;;;;;609.13;553.47;;;;;;;;;;5000212;28;20556;-60
2023/06/11 03:26:29;;;;;;;610.63;554.90;;;;;;;;;;5015932;28;20058;-61
2023/06/11 03:28:55;;;;;;;613.10;557.53;;;;;;;;;;4990819;28;20037;-58
2023/06/11 03:31:23;;;;;;;623.57;567.10;;;;;;;;;;4998118;28;20037;-57
2023/06/11 03:33:50;;;;;;;607.60;552.27;;;;;;;;;;5016001;28;20045;-58
2023/06/11 03:36:17;;;;;;;607.87;552.53;;;;;;;;;;4999407;28;20265;-58
2023/06/11 03:38:43;;;;;;;608.13;552.57;;;;;;;;;;5005296;28;20481;-58
2023/06/11 03:41:10;;;;;;;605.10;549.57;;;;;;;;;;4998085;28;20033;-58
2023/06/11 03:43:37;;;;;;;604.30;548.97;;;;;;;;;;4988952;28;20052;-58
2023/06/11 03:46:03;;;;;;;596.93;541.83;;;;;;;;;;4990265;28;20042;-58
2023/06/11 03:48:29;;;;;;;593.43;538.33;;;;;;;;;;4990552;28;20324;-58
2023/06/11 03:50:54;;;;;;;597.40;541.93;;;;;;;;;;4981281;28;20034;-58
2023/06/11 03:53:20;;;;;;;601.37;545.97;;;;;;;;;;4989925;28;20045;-58
2023/06/11 03:55:45;;;;;;;593.07;538.07;;;;;;;;;;5000391;28;20045;-58
2023/06/11 03:58:11;;;;;;;605.07;549.73;;;;;;;;;;5000866;28;20037;-58
2023/06/11 04:00:37;;;;;;;606.87;551.13;;;;;;;;;;4990486;28;20124;-57
2023/06/11 04:03:02;;;;;;;598.47;542.83;;;;;;;;;;4999308;28;20233;-61
2023/06/11 04:05:34;;;;;;;607.67;551.63;;;;;;;;;;4982546;28;20045;-58
2023/06/11 04:07:59;;;;;;;594.27;539.03;;;;;;;;;;4973767;28;20603;-58
2023/06/11 04:10:25;;;;;;;613.07;557.33;;;;;;;;;;4990448;28;20113;-57
2023/06/11 04:12:50;;;;;;;603.40;548.10;;;;;;;;;;5000761;28;20065;-58
2023/06/11 04:15:16;;;;;;;609.57;553.93;;;;;;;;;;5000579;28;20042;-58
2023/06/11 04:17:43;;;;;;;603.70;548.47;;;;;;;;;;4998149;28;20113;-57
2023/06/11 04:20:09;;;;;;;607.43;552.03;;;;;;;;;;4981762;28;20042;-58
2023/06/11 04:22:34;;;;;;;607.93;552.40;;;;;;;;;;5004369;28;20101;-57
2023/06/11 04:25:00;;;;;;;618.43;562.53;;;;;;;;;;4990501;28;20535;-59
2023/06/11 04:27:25;;;;;;;604.50;548.87;;;;;;;;;;5001138;28;20620;-59
2023/06/11 04:29:52;;;;;;;610.63;554.83;;;;;;;;;;5021173;28;20145;-59
2023/06/11 04:32:20;;;;;;;611.80;556.37;;;;;;;;;;4994944;28;20040;-60
2023/06/11 04:34:48;;;;;;;601.43;546.33;;;;;;;;;;5005382;28;20088;-58
2023/06/11 04:37:16;;;;;;;617.17;561.60;;;;;;;;;;5020591;28;20053;-59
2023/06/11 04:39:42;;;;;;;620.80;564.97;;;;;;;;;;5013050;28;20072;-57
2023/06/11 04:42:08;;;;;;;617.53;561.83;;;;;;;;;;4987434;28;20575;-59
2023/06/11 04:44:36;;;;;;;625.90;569.77;;;;;;;;;;5019431;28;20035;-59
2023/06/11 04:47:05;;;;;;;616.23;560.50;;;;;;;;;;5003686;28;20473;-59
2023/06/11 04:49:32;;;;;;;635.47;579.17;;;;;;;;;;5004522;28;20579;-59
2023/06/11 04:51:58;;;;;;;621.67;565.77;;;;;;;;;;5010337;28;20489;-60
2023/06/11 04:54:24;;;;;;;626.53;570.70;;;;;;;;;;4996881;28;20069;-57
2023/06/11 04:56:50;;;;;;;615.93;560.43;;;;;;;;;;5010112;28;20524;-57
2023/06/11 04:59:16;;;;;;;617.30;561.57;;;;;;;;;;5004685;28;20038;-57
2023/06/11 05:01:46;;;;;;;631.73;575.50;;;;;;;;;;4995688;28;20033;-60
2023/06/11 05:04:14;;;;;;;625.07;569.17;;;;;;;;;;4993955;28;20049;-58
2023/06/11 05:06:44;;;;;;;623.27;567.53;;;;;;;;;;5020426;28;20030;-58
2023/06/11 05:09:13;;;;;;;628.00;572.00;;;;;;;;;;5004237;28;20041;-58
2023/06/11 05:11:41;;;;;;;623.17;567.57;;;;;;;;;;4995596;28;20036;-58
2023/06/11 05:14:07;;;;;;;626.27;570.03;;;;;;;;;;5020489;28;20049;-58
2023/06/11 05:16:34;;;;;;;621.83;566.07;;;;;;;;;;4995521;28;20723;-59
2023/06/11 05:19:01;;;;;;;618.27;562.50;;;;;;;;;;4995913;28;20069;-60
2023/06/11 05:21:27;;;;;;;629.60;573.17;;;;;;;;;;5005361;28;20151;-59
2023/06/11 05:23:53;;;;;;;630.73;575.03;;;;;;;;;;5005469;28;20044;-59
2023/06/11 05:26:32;;;;;;;648.97;592.30;;;;;;;;;;5020295;28;20839;-57
2023/06/11 05:28:58;;;;;;;633.43;577.37;;;;;;;;;;5021338;28;20076;-59
2023/06/11 05:31:24;;;;;;;648.57;592.23;;;;;;;;;;5005180;28;20563;-59
2023/06/11 05:33:50;;;;;;;647.27;591.13;;;;;;;;;;5005814;28;20049;-59
2023/06/11 05:36:16;;;;;;;665.57;608.73;;;;;;;;;;5018146;28;20019;-57
2023/06/11 05:38:43;;;;;;;652.10;595.93;;;;;;;;;;4998813;28;20045;-57
2023/06/11 05:41:09;;;;;;;653.00;596.53;;;;;;;;;;5015822;28;20049;-58
2023/06/11 05:43:35;;;;;;;642.87;587.03;;;;;;;;;;4975946;28;20038;-58
2023/06/11 05:46:01;;;;;;;650.93;594.50;;;;;;;;;;4999484;28;20056;-57
2023/06/11 05:48:27;;;;;;;663.40;606.50;;;;;;;;;;5009361;28;20022;-57
2023/06/11 05:50:52;;;;;;;649.87;593.57;;;;;;;;;;5015922;28;20052;-58
2023/06/11 05:53:18;;;;;;;636.50;580.53;;;;;;;;;;5018517;28;20129;-58
2023/06/11 05:55:44;;;;;;;637.00;580.83;;;;;;;;;;5008699;28;20566;-58
2023/06/11 05:58:11;;;;;;;625.40;569.97;;;;;;;;;;5001300;28;20490;-59
2023/06/11 06:00:37;;;;;;;640.47;584.60;;;;;;;;;;5002032;28;20461;-58
2023/06/11 06:03:04;;;;;;;640.93;584.97;;;;;;;;;;4992803;28;20120;-58
2023/06/11 06:05:31;;;;;;;638.77;582.37;;;;;;;;;;5018310;28;20152;-56
2023/06/11 06:07:57;;;;;;;630.10;574.37;;;;;;;;;;4991817;28;20048;-57
2023/06/11 06:10:22;;;;;;;627.40;571.60;;;;;;;;;;4992599;28;20508;-54
2023/06/11 06:12:48;;;;;;;638.77;582.63;;;;;;;;;;5002351;28;20152;-57
2023/06/11 06:15:14;;;;;;;629.23;573.40;;;;;;;;;;4993274;28;20056;-58
2023/06/11 06:17:41;;;;;;;633.70;577.83;;;;;;;;;;4991335;28;20065;-58
2023/06/11 06:20:10;;;;;;;645.77;589.33;;;;;;;;;;4991326;28;20066;-56
2023/06/11 06:22:37;;;;;;;647.70;591.23;;;;;;;;;;4988449;28;20045;-57
2023/06/11 06:25:03;;;;;;;645.40;589.03;;;;;;;;;;5002333;28;20440;-57
2023/06/11 06:27:28;;;;;;;651.27;594.67;;;;;;;;;;4998437;28;20054;-55
2023/06/11 06:29:54;;;;;;;640.03;583.77;;;;;;;;;;4998577;28;20065;-55
2023/06/11 06:32:20;;;;;;;645.67;589.47;;;;;;;;;;4999925;28;20100;-57
2023/06/11 06:34:45;;;;;;;649.87;593.50;;;;;;;;;;4998322;28;20141;-55
2023/06/11 06:37:12;;;;;;;636.90;580.83;;;;;;;;;;5011157;28;20707;-55
2023/06/11 06:39:40;;;;;;;634.43;578.50;;;;;;;;;;4998511;28;20100;-54
2023/06/11 06:42:06;;;;;;;633.77;577.97;;;;;;;;;;5000198;28;20057;-56
2023/06/11 06:44:39;;;;;;;635.20;579.37;;;;;;;;;;4990610;28;20404;-57
2023/06/11 06:47:06;;;;;;;625.57;569.80;;;;;;;;;;5003265;28;20241;-59
2023/06/11 06:49:32;;;;;;;632.27;576.33;;;;;;;;;;4999849;28;20040;-55
2023/06/11 06:51:58;;;;;;;631.67;576.00;;;;;;;;;;5006718;28;20042;-55
2023/06/11 06:54:25;;;;;;;638.03;582.10;;;;;;;;;;5016316;28;20045;-57
2023/06/11 06:56:51;;;;;;;659.70;603.00;;;;;;;;;;5000907;28;20087;-55
2023/06/11 06:59:17;;;;;;;651.47;594.87;;;;;;;;;;5000779;28;20144;-56
2023/06/11 07:01:43;;;;;;;647.50;591.13;;;;;;;;;;4999259;28;20379;-55
2023/06/11 07:04:08;;;;;;;650.03;593.43;;;;;;;;;;5001221;28;20141;-55
2023/06/11 07:06:34;;;;;;;638.00;582.13;;;;;;;;;;5015987;28;20070;-55
2023/06/11 07:09:06;;;;;;;636.53;580.63;;;;;;;;;;5007895;28;20049;-55
2023/06/11 07:11:33;;;;;;;639.73;583.40;;;;;;;;;;5001590;28;20533;-54
2023/06/11 07:13:59;;;;;;;642.23;586.17;;;;;;;;;;4999172;28;20096;-54
2023/06/11 07:16:25;;;;;;;642.43;586.27;;;;;;;;;;4998790;28;20374;-54
2023/06/11 07:18:58;;;;;;;639.50;583.23;;;;;;;;;;5000543;28;20033;-54
2023/06/11 07:21:23;;;;;;;642.53;586.40;;;;;;;;;;4983171;28;20551;-56
2023/06/11 07:23:50;;;;;;;644.20;588.13;;;;;;;;;;4989519;28;20037;-56
2023/06/11 07:26:18;;;;;;;635.23;579.50;;;;;;;;;;5015437;28;20044;-56
2023/06/11 07:28:45;;;;;;;641.67;585.80;;;;;;;;;;5015414;28;20030;-57
2023/06/11 07:31:12;;;;;;;638.10;582.10;;;;;;;;;;4999946;28;20112;-54
2023/06/11 07:33:41;;;;;;;630.93;575.43;;;;;;;;;;4985751;28;20061;-56
2023/06/11 07:36:07;;;;;;;645.03;588.90;;;;;;;;;;4996514;28;20132;-55
2023/06/11 07:38:32;;;;;;;643.57;587.67;;;;;;;;;;5000169;28;20048;-57
2023/06/11 07:40:58;;;;;;;646.73;590.10;;;;;;;;;;4997306;28;20042;-56
2023/06/11 07:43:24;;;;;;;647.37;590.97;;;;;;;;;;5014884;28;20033;-57
2023/06/11 07:45:49;;;;;;;651.23;594.93;;;;;;;;;;4999814;28;20535;-57
2023/06/11 07:48:16;;;;;;;653.27;596.67;;;;;;;;;;5001291;28;20026;-57
2023/06/11 07:50:44;;;;;;;648.37;592.00;;;;;;;;;;4984179;28;20041;-56
2023/06/11 07:53:12;;;;;;;649.37;593.37;;;;;;;;;;5018316;28;20049;-57
2023/06/11 07:55:40;;;;;;;659.63;602.83;;;;;;;;;;5008252;28;20105;-56
2023/06/11 07:58:08;;;;;;;647.23;591.40;;;;;;;;;;5000260;28;20072;-55
2023/06/11 08:00:34;;;;;;;648.70;592.47;;;;;;;;;;5000121;28;20507;-54
2023/06/11 08:02:59;;;;;;;650.47;594.27;;;;;;;;;;4999232;28;20061;-55
2023/06/11 08:05:25;;;;;;;651.43;594.83;;;;;;;;;;4998915;28;20466;-55
2023/06/11 08:07:50;;;;;;;653.23;596.57;;;;;;;;;;4999748;28;20033;-57
2023/06/11 08:10:16;;;;;;;646.20;589.97;;;;;;;;;;5003505;28;20389;-55
2023/06/11 08:12:41;;;;;;;638.97;582.70;;;;;;;;;;5000842;28;20132;-56
2023/06/11 08:15:07;;;;;;;630.70;575.03;;;;;;;;;;5003151;28;20042;-58
2023/06/11 08:17:32;;;;;;;647.77;591.03;;;;;;;;;;4997622;28;20034;-57
2023/06/11 08:19:59;;;;;;;630.40;574.33;;;;;;;;;;4999952;28;20457;-54
2023/06/11 08:22:25;;;;;;;634.63;578.77;;;;;;;;;;5000886;28;20030;-54
2023/06/11 08:24:50;;;;;;;628.73;572.90;;;;;;;;;;5000000;28;20045;-56
2023/06/11 08:27:16;;;;;;;638.03;582.00;;;;;;;;;;5000118;28;20045;-55
2023/06/11 08:29:41;;;;;;;646.97;590.63;;;;;;;;;;4998637;28;20036;-56
2023/06/11 08:32:07;;;;;;;640.40;584.37;;;;;;;;;;4999641;28;20485;-56
2023/06/11 08:34:35;;;;;;;648.60;592.27;;;;;;;;;;4999800;28;20042;-56
2023/06/11 08:37:01;;;;;;;654.57;598.43;;;;;;;;;;5002952;28;20049;-65
2023/06/11 08:39:27;;;;;;;647.50;591.53;;;;;;;;;;4999908;28;20481;-64
2023/06/11 08:41:53;;;;;;;639.67;583.77;;;;;;;;;;5001353;28;20034;-66
2023/06/11 08:44:20;;;;;;;638.90;583.03;;;;;;;;;;4999086;28;20045;-63
2023/06/11 08:46:48;;;;;;;645.60;589.53;;;;;;;;;;5000791;28;20041;-62
2023/06/11 08:49:23;;;;;;;647.30;590.97;;;;;;;;;;5002501;28;20034;-63
2023/06/11 08:51:49;;;;;;;661.80;605.00;;;;;;;;;;5001876;28;20099;-62
2023/06/11 08:54:16;;;;;;;651.67;595.23;;;;;;;;;;4998021;28;20124;-60
2023/06/11 08:56:41;;;;;;;653.83;597.47;;;;;;;;;;4999177;28;20125;-63
2023/06/11 08:59:07;;;;;;;653.70;597.53;;;;;;;;;;4999848;28;20069;-63
2023/06/11 09:01:33;;;;;;;653.40;597.13;;;;;;;;;;4999113;28;20092;-64
2023/06/11 09:03:58;;;;;;;655.60;599.37;;;;;;;;;;4999940;28;20243;-64
2023/06/11 09:06:24;;;;;;;674.40;617.60;;;;;;;;;;4999241;28;20429;-64
2023/06/11 09:09:00;;;;;;;661.67;605.23;;;;;;;;;;4999752;28;20042;-63
2023/06/11 09:11:36;;;;;;;660.70;604.20;;;;;;;;;;4998754;28;20485;-63
2023/06/11 09:14:03;;;;;;;661.33;605.10;;;;;;;;;;5000806;28;20033;-64
2023/06/11 09:16:28;;;;;;;671.60;615.00;;;;;;;;;;5002068;28;20712;-63
2023/06/11 09:18:55;;;;;;;670.03;613.30;;;;;;;;;;5002098;28;20499;-63
2023/06/11 09:21:25;;;;;;;674.97;618.00;;;;;;;;;;5002294;28;20188;-62
2023/06/11 09:23:50;;;;;;;690.20;632.80;;;;;;;;;;5003276;28;20061;-62
2023/06/11 09:26:17;;;;;;;672.30;615.97;;;;;;;;;;5001519;28;20037;-61
2023/06/11 09:28:50;;;;;;;679.40;622.37;;;;;;;;;;5003253;28;20046;-63
2023/06/11 09:31:17;;;;;;;679.30;622.27;;;;;;;;;;5003137;28;20204;-63
2023/06/11 09:33:43;;;;;;;681.70;624.63;;;;;;;;;;5003850;28;20064;-62
2023/06/11 09:36:08;;;;;;;683.27;626.30;;;;;;;;;;5003956;28;20496;-62
2023/06/11 09:38:36;;;;;;;679.53;622.60;;;;;;;;;;5003336;28;20389;-73
2023/06/11 09:41:04;;;;;;;683.73;626.73;;;;;;;;;;4994168;28;20052;-67
2023/06/11 09:43:30;;;;;;;704.13;646.53;;;;;;;;;;4992785;28;20050;-62
2023/06/11 09:45:56;;;;;;;695.63;638.17;;;;;;;;;;5002419;28;20045;-60
2023/06/11 09:48:23;;;;;;;693.70;636.57;;;;;;;;;;5001777;28;20025;-61
2023/06/11 09:50:49;;;;;;;692.97;635.43;;;;;;;;;;5001228;28;20252;-62
2023/06/11 09:53:15;;;;;;;681.77;624.67;;;;;;;;;;4999553;28;20026;-61
2023/06/11 09:55:41;;;;;;;686.97;629.97;;;;;;;;;;5001193;28;20041;-61
2023/06/11 09:58:08;;;;;;;688.53;631.57;;;;;;;;;;5001306;28;20054;-60
2023/06/11 10:00:34;;;;;;;693.27;636.00;;;;;;;;;;5000667;28;20081;-63
2023/06/11 10:03:00;;;;;;;680.20;623.43;;;;;;;;;;4998573;28;20079;-62
2023/06/11 10:05:28;;;;;;;690.40;633.33;;;;;;;;;;4981055;28;20050;-62
2023/06/11 10:08:02;;;;;;;690.67;633.70;;;;;;;;;;4980402;28;20031;-62
2023/06/11 10:10:34;;;;;;;694.67;637.57;;;;;;;;;;4982070;28;20446;-63
2023/06/11 10:12:59;;;;;;;704.43;647.20;;;;;;;;;;4981644;28;20061;-64
2023/06/11 10:15:25;;;;;;;701.33;643.97;;;;;;;;;;4980173;28;20180;-64
2023/06/11 10:17:51;;;;;;;708.97;651.47;;;;;;;;;;4982119;28;20077;-64
2023/06/11 10:20:25;;;;;;;712.40;654.77;;;;;;;;;;4982658;28;20073;-66
2023/06/11 10:23:01;;;;;;;706.03;648.60;;;;;;;;;;4964251;28;20442;-64
2023/06/11 10:25:31;;;;;;;719.37;661.70;;;;;;;;;;4964849;28;20077;-63
2023/06/11 10:27:57;;;;;;;725.90;668.00;;;;;;;;;;4983371;28;20034;-62
2023/06/11 10:30:24;;;;;;;733.83;675.43;;;;;;;;;;4981057;28;20038;-62
2023/06/11 10:32:49;;;;;;;726.87;668.93;;;;;;;;;;4965514;28;20050;-63
2023/06/11 10:35:20;;;;;;;741.73;683.03;;;;;;;;;;4980325;28;20163;-62
2023/06/11 10:37:47;;;;;;;721.30;663.70;;;;;;;;;;4982381;28;20593;-62
2023/06/11 10:40:12;;;;;;;728.03;669.87;;;;;;;;;;4981038;28;20143;-61
2023/06/11 10:42:42;;;;;;;726.37;668.40;;;;;;;;;;4982591;28;20239;-62
2023/06/11 10:45:08;;;;;;;733.27;675.30;;;;;;;;;;4981030;28;20082;-62
2023/06/11 10:47:45;;;;;;;725.33;667.63;;;;;;;;;;4963835;28;20064;-62
2023/06/11 10:50:11;;;;;;;720.30;662.50;;;;;;;;;;4980549;28;20034;-62
2023/06/11 10:53:06;;;;;;;731.70;673.90;;;;;;;;;;4981813;28;20041;-62
2023/06/11 10:55:32;;;;;;;728.08;670.03;;;;;;;;;;4967617;28;20086;-62
2023/06/11 10:57:58;;;;;;;734.73;676.53;;;;;;;;;;4982417;28;20117;-61
2023/06/11 11:00:28;;;;;;;734.50;676.40;;;;;;;;;;4979822;28;20430;-62
2023/06/11 11:02:55;;;;;;;739.07;680.93;;;;;;;;;;4982681;28;20031;-64
2023/06/11 11:05:20;;;;;;;740.53;682.20;;;;;;;;;;5000605;28;20042;-63
2023/06/11 11:07:47;;;;;;;735.90;677.93;;;;;;;;;;5015531;28;20053;-61
2023/06/11 11:10:15;;;;;;;743.13;684.83;;;;;;;;;;5000332;28;20044;-61
2023/06/11 11:12:41;;;;;;;741.60;683.27;;;;;;;;;;5000355;28;20117;-62
2023/06/11 11:15:07;;;;;;;749.73;691.23;;;;;;;;;;4999720;28;20041;-61
2023/06/11 11:17:33;;;;;;;751.13;692.40;;;;;;;;;;4999396;28;20026;-61
2023/06/11 11:19:59;;;;;;;759.37;700.73;;;;;;;;;;4999672;28;20077;-62
2023/06/11 11:22:29;;;;;;;759.87;701.30;;;;;;;;;;5000717;28;20041;-62
2023/06/11 11:24:58;;;;;;;776.90;717.73;;;;;;;;;;4991311;28;20053;-61
2023/06/11 11:27:24;;;;;;;770.13;711.20;;;;;;;;;;5001146;28;20586;-61
2023/06/11 11:29:50;;;;;;;778.40;718.33;;;;;;;;;;5000912;28;20301;-60
2023/06/11 11:32:17;;;;;;;781.10;721.80;;;;;;;;;;5000495;28;20535;-61
2023/06/11 11:34:43;;;;;;;789.60;730.27;;;;;;;;;;5000707;28;20076;-62
2023/06/11 11:37:09;;;;;;;783.80;724.27;;;;;;;;;;4987988;28;20030;-61
2023/06/11 11:39:35;;;;;;;782.40;723.03;;;;;;;;;;4990599;28;20036;-61
2023/06/11 11:42:01;;;;;;;782.53;723.23;;;;;;;;;;4999204;28;20720;-61
2023/06/11 11:44:27;;;;;;;786.30;727.13;;;;;;;;;;5001102;28;20034;-61
2023/06/11 11:46:57;;;;;;;786.73;727.53;;;;;;;;;;4988482;28;20041;-61
2023/06/11 11:49:22;;;;;;;789.70;730.30;;;;;;;;;;4999511;28;20045;-61
2023/06/11 11:51:52;;;;;;;797.50;738.00;;;;;;;;;;4999903;28;20046;-61
2023/06/11 11:54:18;;;;;;;794.27;734.80;;;;;;;;;;5000176;28;20042;-63
2023/06/11 11:56:43;;;;;;;800.57;740.53;;;;;;;;;;5000465;28;20036;-61
2023/06/11 11:59:21;;;;;;;795.63;735.97;;;;;;;;;;5000408;28;20041;-61
2023/06/11 12:01:57;;;;;;;796.33;736.90;;;;;;;;;;4999431;28;20034;-61
2023/06/11 12:04:32;;;;;;;800.97;741.30;;;;;;;;;;4988647;28;20397;-61
2023/06/11 12:07:07;;;;;;;805.57;745.57;;;;;;;;;;5000441;28;20026;-61
2023/06/11 12:09:37;;;;;;;811.20;751.07;;;;;;;;;;5000119;28;20034;-61
2023/06/11 12:12:03;;;;;;;808.00;748.03;;;;;;;;;;5000245;28;20196;-61
2023/06/11 12:14:28;;;;;;;801.90;742.10;;;;;;;;;;5014123;28;20048;-61
2023/06/11 12:16:54;;;;;;;798.20;738.47;;;;;;;;;;4997509;28;20022;-60
2023/06/11 12:19:20;;;;;;;791.87;732.40;;;;;;;;;;4989486;28;20489;-61
2023/06/11 12:21:47;;;;;;;794.20;734.70;;;;;;;;;;4999474;28;20077;-61
2023/06/11 12:24:15;;;;;;;791.10;731.67;;;;;;;;;;4999756;28;20476;-60
2023/06/11 12:26:42;;;;;;;774.77;715.97;;;;;;;;;;5014224;28;20467;-60
2023/06/11 12:29:08;;;;;;;776.60;717.53;;;;;;;;;;5000308;28;20572;-60
2023/06/11 12:31:34;;;;;;;762.53;703.83;;;;;;;;;;4999038;28;20070;-61
2023/06/11 12:33:59;;;;;;;773.80;714.20;;;;;;;;;;5000648;28;20130;-61
2023/06/11 12:36:25;;;;;;;763.13;704.20;;;;;;;;;;4997808;28;20048;-61
2023/06/11 12:38:51;;;;;;;755.87;697.30;;;;;;;;;;4999688;28;20426;-61
2023/06/11 12:41:17;;;;;;;756.70;697.97;;;;;;;;;;4998334;28;20057;-61
2023/06/11 12:43:43;;;;;;;757.40;698.93;;;;;;;;;;4998777;28;20041;-60
2023/06/11 12:46:08;;;;;;;758.63;699.90;;;;;;;;;;4999038;28;20045;-61
2023/06/11 12:48:34;;;;;;;766.93;707.93;;;;;;;;;;5000723;28;20495;-61
2023/06/11 12:50:59;;;;;;;758.50;699.63;;;;;;;;;;5006548;28;20025;-60
2023/06/11 12:53:25;;;;;;;753.97;695.57;;;;;;;;;;5003304;28;20030;-60
2023/06/11 12:55:51;;;;;;;758.27;699.77;;;;;;;;;;5004490;28;20061;-61
2023/06/11 12:58:17;;;;;;;783.07;723.67;;;;;;;;;;5004172;28;20099;-61
2023/06/11 13:00:43;;;;;;;778.70;719.77;;;;;;;;;;5001332;28;20050;-61
2023/06/11 13:03:08;;;;;;;775.57;716.47;;;;;;;;;;4985902;28;20085;-60
2023/06/11 13:05:34;;;;;;;780.50;721.40;;;;;;;;;;4986392;28;20054;-61
2023/06/11 13:07:59;;;;;;;779.90;720.77;;;;;;;;;;4993053;28;20231;-60
2023/06/11 13:10:25;;;;;;;789.17;729.90;;;;;;;;;;5003516;28;20034;-60
2023/06/11 13:12:53;;;;;;;783.07;723.70;;;;;;;;;;5003597;28;20099;-61
2023/06/11 13:15:19;;;;;;;792.40;732.80;;;;;;;;;;5002586;28;20380;-61
2023/06/11 13:17:44;;;;;;;788.30;729.03;;;;;;;;;;5001869;28;20036;-61
2023/06/11 13:20:11;;;;;;;808.23;748.30;;;;;;;;;;5002995;28;20038;-61
2023/06/11 13:22:37;;;;;;;807.10;747.13;;;;;;;;;;4991617;28;20033;-61
2023/06/11 13:25:02;;;;;;;804.27;744.57;;;;;;;;;;5003551;28;20143;-60
2023/06/11 13:27:28;;;;;;;808.77;748.90;;;;;;;;;;5001662;28;20140;-61
2023/06/11 13:29:54;;;;;;;800.93;741.37;;;;;;;;;;5003465;28;20042;-63
2023/06/11 13:32:20;;;;;;;805.00;745.17;;;;;;;;;;4984392;28;20030;-63
2023/06/11 13:34:45;;;;;;;806.40;746.67;;;;;;;;;;5002928;28;20034;-63
2023/06/11 13:37:10;;;;;;;799.43;739.50;;;;;;;;;;5001188;28;20687;-63
2023/06/11 13:39:36;;;;;;;808.37;748.50;;;;;;;;;;5003788;28;20034;-58
2023/06/11 13:42:01;;;;;;;802.43;742.63;;;;;;;;;;5002170;28;20030;-63
2023/06/11 13:44:27;;;;;;;804.37;744.63;;;;;;;;;;5002094;28;20500;-63
2023/06/11 13:46:53;;;;;;;781.63;722.33;;;;;;;;;;5002624;28;20591;-63
2023/06/11 13:49:19;;;;;;;798.70;739.17;;;;;;;;;;4992127;28;20393;-63